Time;durP1;ratioP1;P1;durP2;ratioP2;P2;SDS_P1;SDS_P2;PMS_P1;PMS_P2;Temp;Humidity;BMP_temperature;BMP_pressure;BME280_temperature;BME280_humidity;BME280_pressure;Samples;Min_cycle;Max_cycle;Signal;HPM_P1;HPM_P2
2023/08/30 00:01:19;;;;;;;0.10;0.10;;;;;;;13.66;100.00;98494.13;5072076;28;20274;-55
2023/08/30 00:04:07;;;;;;;0.10;0.10;;;;;;;13.50;100.00;98491.09;5072084;28;20191;-55
2023/08/30 00:06:54;;;;;;;0.10;0.10;;;;;;;13.50;100.00;98495.56;5072134;28;20195;-55
2023/08/30 00:09:42;;;;;;;0.10;0.10;;;;;;;13.65;100.00;98489.78;5072187;28;20291;-55
2023/08/30 00:12:29;;;;;;;0.10;0.10;;;;;;;13.87;100.00;98495.88;5074459;28;20254;-55
2023/08/30 00:15:17;;;;;;;0.10;0.10;;;;;;;13.70;100.00;98482.25;5075450;28;20192;-56
2023/08/30 00:18:04;;;;;;;0.10;0.10;;;;;;;13.71;100.00;98481.28;5075599;28;20195;-55
2023/08/30 00:20:51;;;;;;;0.10;0.10;;;;;;;13.79;100.00;98477.06;5075645;28;20317;-55
2023/08/30 00:23:38;;;;;;;0.10;0.10;;;;;;;13.82;100.00;98466.16;5075476;28;20192;-55
2023/08/30 00:26:26;;;;;;;0.10;0.10;;;;;;;13.63;100.00;98466.94;5075389;28;20263;-55
2023/08/30 00:29:14;;;;;;;0.10;0.10;;;;;;;13.65;100.00;98457.84;5074134;28;20235;-56
2023/08/30 00:32:01;;;;;;;0.00;0.00;;;;;;;13.91;100.00;98465.34;5075391;28;20234;-56
2023/08/30 00:34:51;;;;;;;0.10;0.10;;;;;;;13.78;100.00;98454.94;5075250;28;20330;-55
2023/08/30 00:37:38;;;;;;;0.10;0.10;;;;;;;13.61;100.00;98468.91;5074935;28;20274;-55
2023/08/30 00:40:25;;;;;;;0.10;0.10;;;;;;;13.55;100.00;98477.41;5075071;28;20200;-56
2023/08/30 00:43:13;;;;;;;0.10;0.10;;;;;;;13.61;100.00;98480.38;5073754;28;20184;-55
2023/08/30 00:46:00;;;;;;;0.10;0.10;;;;;;;13.67;100.00;98474.50;5073876;28;20210;-55
2023/08/30 00:48:48;;;;;;;0.10;0.10;;;;;;;13.59;100.00;98469.00;5073957;28;20207;-55
2023/08/30 00:51:35;;;;;;;0.10;0.10;;;;;;;13.50;100.00;98467.16;5074913;28;20195;-55
2023/08/30 00:54:22;;;;;;;0.10;0.10;;;;;;;13.67;100.00;98473.66;5074678;28;20238;-55
2023/08/30 00:57:10;;;;;;;0.10;0.10;;;;;;;13.56;100.00;98477.28;5072629;28;20196;-55
2023/08/30 00:59:59;;;;;;;0.10;0.10;;;;;;;13.49;100.00;98472.63;5074871;28;20291;-56
2023/08/30 01:02:46;;;;;;;0.10;0.10;;;;;;;13.47;100.00;98470.09;5073627;28;20194;-55
2023/08/30 01:05:33;;;;;;;0.00;0.00;;;;;;;13.68;100.00;98470.03;5073695;28;20195;-55
2023/08/30 01:08:20;;;;;;;0.07;0.07;;;;;;;13.53;100.00;98474.06;5074651;28;20195;-55
2023/08/30 01:11:14;;;;;;;0.10;0.10;;;;;;;13.74;100.00;98483.66;5074368;28;20240;-55
2023/08/30 01:14:05;;;;;;;0.10;0.10;;;;;;;13.80;100.00;98482.28;5073485;28;20699;-55
2023/08/30 01:16:57;;;;;;;0.10;0.10;;;;;;;13.67;100.00;98469.19;5074578;28;20191;-55
2023/08/30 01:19:55;;;;;;;0.10;0.10;;;;;;;13.90;100.00;98469.84;5074420;28;20727;-56
2023/08/30 01:22:48;;;;;;;0.00;0.00;;;;;;;14.23;100.00;98473.97;5072590;28;20222;-55
2023/08/30 01:25:46;;;;;;;0.10;0.10;;;;;;;14.28;100.00;98461.09;5074491;28;20192;-55
2023/08/30 01:28:39;;;;;;;0.10;0.10;;;;;;;14.21;100.00;98454.63;5071940;28;20377;-56
2023/08/30 01:31:29;;;;;;;0.00;0.00;;;;;;;14.14;100.00;98452.63;5074243;28;20262;-55
2023/08/30 01:34:17;;;;;;;0.10;0.10;;;;;;;14.26;100.00;98456.84;5073027;28;20711;-55
2023/08/30 01:37:05;;;;;;;0.10;0.10;;;;;;;13.84;100.00;98449.06;5072902;28;20254;-55
2023/08/30 01:39:56;;;;;;;0.10;0.10;;;;;;;13.66;100.00;98451.53;5074175;28;20188;-55
2023/08/30 01:42:45;;;;;;;0.10;0.10;;;;;;;13.78;100.00;98446.94;5072826;28;20249;-55
2023/08/30 01:45:36;;;;;;;0.10;0.10;;;;;;;13.67;100.00;98457.69;5074058;28;20367;-55
2023/08/30 01:48:23;;;;;;;0.10;0.10;;;;;;;13.87;100.00;98454.13;5073885;28;20242;-55
2023/08/30 01:51:11;;;;;;;0.10;0.10;;;;;;;13.84;100.00;98454.41;5073413;28;20219;-55
2023/08/30 01:53:59;;;;;;;0.00;0.00;;;;;;;13.93;100.00;98464.22;5073760;28;20195;-55
2023/08/30 01:56:46;;;;;;;0.10;0.10;;;;;;;13.82;100.00;98463.50;5072308;28;20228;-55
2023/08/30 01:59:33;;;;;;;0.10;0.10;;;;;;;13.95;100.00;98461.44;5072570;28;20198;-56
2023/08/30 02:02:22;;;;;;;0.10;0.10;;;;;;;13.92;100.00;98467.03;5072603;28;20671;-55
2023/08/30 02:05:09;;;;;;;0.10;0.10;;;;;;;13.88;100.00;98471.78;5073440;28;20208;-55
2023/08/30 02:08:06;;;;;;;0.10;0.10;;;;;;;13.72;100.00;98471.47;5072414;28;20192;-56
2023/08/30 02:11:02;;;;;;;0.10;0.10;;;;;;;13.68;100.00;98481.50;5073167;28;20211;-56
2023/08/30 02:13:51;;;;;;;0.10;0.10;;;;;;;13.61;100.00;98474.22;5071873;28;20207;-56
2023/08/30 02:16:39;;;;;;;0.10;0.10;;;;;;;13.71;100.00;98464.47;5073258;28;20194;-55
2023/08/30 02:19:27;;;;;;;0.10;0.10;;;;;;;13.82;100.00;98476.81;5073449;28;20192;-56
2023/08/30 02:22:14;;;;;;;0.10;0.10;;;;;;;13.67;100.00;98471.84;5072055;28;20218;-56
2023/08/30 02:25:04;;;;;;;0.10;0.10;;;;;;;13.72;100.00;98472.31;5073145;28;20640;-55
2023/08/30 02:27:51;;;;;;;0.10;0.10;;;;;;;13.58;100.00;98475.31;5071889;28;20390;-55
2023/08/30 02:30:38;;;;;;;0.10;0.10;;;;;;;13.80;100.00;98478.75;5072725;28;20248;-55
2023/08/30 02:33:25;;;;;;;0.10;0.10;;;;;;;14.33;100.00;98479.31;5072951;28;20203;-56
2023/08/30 02:36:13;;;;;;;0.10;0.10;;;;;;;14.02;100.00;98475.88;5073188;28;20199;-56
2023/08/30 02:39:00;;;;;;;0.10;0.10;;;;;;;14.13;100.00;98467.78;5072582;28;20238;-56
2023/08/30 02:41:47;;;;;;;0.10;0.10;;;;;;;13.85;100.00;98468.56;5071587;28;20196;-56
2023/08/30 02:44:34;;;;;;;0.10;0.10;;;;;;;14.05;100.00;98467.63;5072934;28;20691;-56
2023/08/30 02:47:21;;;;;;;0.10;0.10;;;;;;;13.89;100.00;98461.97;5071899;28;20234;-56
2023/08/30 02:50:08;;;;;;;0.10;0.10;;;;;;;13.83;100.00;98460.72;5071793;28;20219;-55
2023/08/30 02:52:56;;;;;;;0.10;0.10;;;;;;;13.68;100.00;98456.72;5071858;28;20233;-56
2023/08/30 02:55:43;;;;;;;0.10;0.10;;;;;;;13.67;100.00;98463.88;5071773;28;20199;-55
2023/08/30 02:58:30;;;;;;;0.00;0.00;;;;;;;13.70;100.00;98465.41;5071540;28;20195;-55
2023/08/30 03:01:19;;;;;;;0.10;0.10;;;;;;;13.75;100.00;98460.53;5072742;28;20183;-55
2023/08/30 03:04:09;;;;;;;0.10;0.10;;;;;;;13.73;100.00;98463.34;5071773;28;20199;-55
2023/08/30 03:06:56;;;;;;;0.00;0.00;;;;;;;13.67;100.00;98460.38;5072655;28;20196;-56
2023/08/30 03:09:46;;;;;;;0.10;0.10;;;;;;;13.69;100.00;98448.59;5071604;28;20200;-55
2023/08/30 03:12:34;;;;;;;0.10;0.10;;;;;;;13.71;100.00;98456.47;5070284;28;20231;-56
2023/08/30 03:15:22;;;;;;;0.10;0.10;;;;;;;13.90;100.00;98453.88;5072660;28;20203;-55
2023/08/30 03:18:09;;;;;;;0.10;0.10;;;;;;;13.83;100.00;98451.88;5071622;28;20195;-55
2023/08/30 03:21:01;;;;;;;0.10;0.10;;;;;;;13.71;100.00;98445.81;5071488;28;20200;-55
2023/08/30 03:23:48;;;;;;;0.10;0.10;;;;;;;13.90;100.00;98445.03;5072385;28;20281;-56
2023/08/30 03:26:36;;;;;;;0.10;0.10;;;;;;;13.85;100.00;98444.59;5070967;28;20218;-56
2023/08/30 03:29:23;;;;;;;0.10;0.10;;;;;;;13.71;100.00;98436.03;5071319;28;20234;-56
2023/08/30 03:32:10;;;;;;;0.00;0.00;;;;;;;13.79;100.00;98451.28;5072441;28;20295;-55
2023/08/30 03:34:57;;;;;;;0.10;0.10;;;;;;;13.67;100.00;98444.41;5071275;28;20190;-55
2023/08/30 03:37:44;;;;;;;0.10;0.10;;;;;;;13.80;100.00;98450.34;5071142;28;20235;-55
2023/08/30 03:40:31;;;;;;;0.10;0.10;;;;;;;13.67;100.00;98450.56;5072428;28;20314;-55
2023/08/30 03:43:19;;;;;;;0.00;0.00;;;;;;;13.65;100.00;98452.53;5069941;28;20200;-55
2023/08/30 03:46:06;;;;;;;0.10;0.10;;;;;;;13.73;100.00;98458.00;5074977;28;20204;-56
2023/08/30 03:48:53;;;;;;;0.10;0.10;;;;;;;13.56;100.00;98444.50;5075303;28;20314;-55
2023/08/30 03:51:41;;;;;;;0.10;0.10;;;;;;;13.55;100.00;98446.31;5074552;28;20227;-55
2023/08/30 03:54:28;;;;;;;0.10;0.10;;;;;;;13.51;100.00;98436.94;5074977;28;20549;-55
2023/08/30 03:57:15;;;;;;;0.10;0.10;;;;;;;13.58;100.00;98440.72;5074636;28;20266;-56
2023/08/30 04:00:04;;;;;;;0.10;0.10;;;;;;;13.48;100.00;98437.19;5074720;28;20278;-56
2023/08/30 04:02:59;;;;;;;0.10;0.10;;;;;;;13.48;100.00;98434.53;5075478;28;20230;-56
2023/08/30 04:05:46;;;;;;;0.10;0.10;;;;;;;13.65;100.00;98441.03;5074867;28;20199;-55
2023/08/30 04:08:33;;;;;;;0.10;0.10;;;;;;;13.73;100.00;98441.22;5075550;28;20207;-55
2023/08/30 04:11:20;;;;;;;0.10;0.10;;;;;;;13.70;100.00;98445.00;5074546;28;20223;-56
2023/08/30 04:14:07;;;;;;;0.10;0.10;;;;;;;13.63;100.00;98437.66;5075582;28;20196;-55
2023/08/30 04:16:55;;;;;;;0.00;0.00;;;;;;;13.66;100.00;98437.41;5074365;28;20195;-55
2023/08/30 04:19:42;;;;;;;0.10;0.10;;;;;;;13.68;100.00;98441.59;5075540;28;20196;-55
2023/08/30 04:22:29;;;;;;;0.10;0.10;;;;;;;13.78;100.00;98438.97;5075566;28;20199;-55
2023/08/30 04:25:16;;;;;;;0.10;0.10;;;;;;;13.67;100.00;98431.94;5075259;28;20291;-55
2023/08/30 04:28:04;;;;;;;0.10;0.10;;;;;;;13.61;100.00;98432.50;5072991;28;20207;-56
2023/08/30 04:30:54;;;;;;;0.10;0.10;;;;;;;13.62;100.00;98425.34;5074279;28;20226;-55
2023/08/30 04:33:42;;;;;;;0.00;0.00;;;;;;;13.56;100.00;98423.22;5074187;28;20191;-56
2023/08/30 04:36:29;;;;;;;0.10;0.10;;;;;;;13.64;100.00;98420.72;5075295;28;20195;-56
2023/08/30 04:39:16;;;;;;;0.10;0.10;;;;;;;13.71;100.00;98417.41;5074251;28;20203;-56
2023/08/30 04:42:03;;;;;;;0.10;0.10;;;;;;;13.90;100.00;98421.91;5072737;28;20188;-56
2023/08/30 04:44:50;;;;;;;0.10;0.10;;;;;;;13.83;100.00;98418.13;5075164;28;20199;-56
2023/08/30 04:47:37;;;;;;;0.10;0.10;;;;;;;13.90;100.00;98421.09;5074036;28;20215;-56
2023/08/30 04:50:25;;;;;;;0.10;0.10;;;;;;;13.87;100.00;98421.34;5073819;28;20238;-56
2023/08/30 04:53:12;;;;;;;0.10;0.10;;;;;;;13.89;100.00;98425.53;5073920;28;20330;-55
2023/08/30 04:55:59;;;;;;;0.03;0.03;;;;;;;14.16;100.00;98424.88;5073173;28;20208;-56
2023/08/30 04:58:49;;;;;;;0.10;0.10;;;;;;;13.77;100.00;98426.63;5072425;28;20302;-55
2023/08/30 05:01:38;;;;;;;0.10;0.10;;;;;;;13.83;100.00;98425.25;5073921;28;20204;-55
2023/08/30 05:04:27;;;;;;;0.00;0.00;;;;;;;14.02;100.00;98427.97;5073687;28;20196;-56
2023/08/30 05:07:15;;;;;;;0.10;0.10;;;;;;;13.88;100.00;98431.84;5073658;28;20196;-56
2023/08/30 05:10:02;;;;;;;0.10;0.10;;;;;;;13.82;100.00;98431.56;5074615;28;20200;-56
2023/08/30 05:12:51;;;;;;;0.03;0.03;;;;;;;13.91;100.00;98428.09;5071993;28;20339;-56
2023/08/30 05:15:38;;;;;;;0.10;0.10;;;;;;;13.98;100.00;98427.38;5073638;28;20199;-55
2023/08/30 05:18:25;;;;;;;0.10;0.10;;;;;;;14.19;100.00;98429.94;5073452;28;20195;-56
2023/08/30 05:21:12;;;;;;;0.10;0.10;;;;;;;14.23;100.00;98423.34;5073254;28;20199;-56
2023/08/30 05:24:00;;;;;;;0.10;0.10;;;;;;;14.43;100.00;98420.69;5074445;28;20221;-55
2023/08/30 05:26:48;;;;;;;0.00;0.00;;;;;;;14.24;100.00;98422.38;5073127;28;20227;-55
2023/08/30 05:29:36;;;;;;;0.00;0.00;;;;;;;14.39;100.00;98424.63;5073250;28;20231;-55
2023/08/30 05:32:23;;;;;;;0.10;0.10;;;;;;;14.49;100.00;98428.16;5072938;28;20211;-56
2023/08/30 05:35:39;;;;;;;0.10;0.10;;;;;;;14.33;100.00;98426.84;5071816;28;20323;-55
2023/08/30 05:38:38;;;;;;;0.07;0.07;;;;;;;14.22;100.00;98421.66;5072710;28;20313;-56
2023/08/30 05:41:35;;;;;;;0.10;0.10;;;;;;;14.24;100.00;98425.03;5072173;28;20671;-56
2023/08/30 05:44:22;;;;;;;0.10;0.10;;;;;;;14.24;100.00;98426.84;5072962;28;20191;-56
2023/08/30 05:47:14;;;;;;;0.10;0.10;;;;;;;14.31;100.00;98428.00;5072983;28;20266;-56
2023/08/30 05:50:01;;;;;;;0.10;0.10;;;;;;;14.32;100.00;98430.50;5072552;28;20210;-56
2023/08/30 05:52:48;;;;;;;0.10;0.10;;;;;;;14.38;100.00;98433.56;5072135;28;20218;-56
2023/08/30 05:55:37;;;;;;;0.10;0.10;;;;;;;14.22;100.00;98427.00;5072642;28;20199;-55
2023/08/30 05:58:26;;;;;;;0.10;0.10;;;;;;;14.37;100.00;98429.22;5071496;28;20199;-56
2023/08/30 06:01:13;;;;;;;0.10;0.10;;;;;;;14.26;100.00;98425.72;5073481;28;20339;-56
2023/08/30 06:03:59;;;;;;;0.10;0.10;;;;;;;14.44;100.00;98433.88;5073551;28;20203;-56
2023/08/30 06:06:47;;;;;;;0.00;0.00;;;;;;;14.57;100.00;98438.94;5073551;28;20314;-56
2023/08/30 06:09:34;;;;;;;0.00;0.00;;;;;;;14.35;100.00;98429.38;5072976;28;20207;-56
2023/08/30 06:12:21;;;;;;;0.10;0.10;;;;;;;14.57;100.00;98433.59;5072024;28;20219;-56
2023/08/30 06:15:09;;;;;;;0.10;0.10;;;;;;;14.71;100.00;98435.00;5073411;28;20202;-55
2023/08/30 06:17:56;;;;;;;0.10;0.10;;;;;;;14.63;100.00;98426.88;5073001;28;20211;-56
2023/08/30 06:20:43;;;;;;;0.10;0.10;;;;;;;14.47;100.00;98422.13;5073330;28;20214;-56
2023/08/30 06:23:30;;;;;;;0.10;0.10;;;;;;;14.10;100.00;98435.25;5073241;28;20187;-56
2023/08/30 06:26:17;;;;;;;0.10;0.10;;;;;;;14.24;100.00;98437.50;5073046;28;20746;-56
2023/08/30 06:29:04;;;;;;;0.10;0.10;;;;;;;14.23;100.00;98439.34;5073064;28;20194;-56
2023/08/30 06:31:52;;;;;;;0.10;0.10;;;;;;;14.07;100.00;98433.69;5072859;28;20215;-55
2023/08/30 06:34:39;;;;;;;0.07;0.07;;;;;;;14.07;100.00;98430.19;5072855;28;20200;-55
2023/08/30 06:37:26;;;;;;;0.10;0.10;;;;;;;14.36;100.00;98425.72;5072806;28;20334;-55
2023/08/30 06:40:13;;;;;;;0.10;0.10;;;;;;;14.23;100.00;98441.16;5072969;28;20195;-56
2023/08/30 06:43:00;;;;;;;0.10;0.10;;;;;;;14.28;100.00;98442.44;5071548;28;20269;-56
2023/08/30 06:45:47;;;;;;;0.00;0.00;;;;;;;14.37;100.00;98450.56;5072776;28;20199;-56
2023/08/30 06:48:36;;;;;;;0.10;0.10;;;;;;;14.76;100.00;98451.41;5072882;28;20192;-56
2023/08/30 06:51:23;;;;;;;0.00;0.00;;;;;;;14.94;100.00;98451.53;5072606;28;20437;-56
2023/08/30 06:54:10;;;;;;;0.10;0.10;;;;;;;14.78;100.00;98439.66;5071963;28;20207;-56
2023/08/30 06:57:00;;;;;;;0.10;0.10;;;;;;;14.78;100.00;98433.47;5071418;28;20199;-56
2023/08/30 06:59:47;;;;;;;0.00;0.00;;;;;;;14.98;100.00;98428.94;5072733;28;20179;-56
2023/08/30 07:02:35;;;;;;;0.10;0.10;;;;;;;14.51;100.00;98424.38;5072882;28;20186;-56
2023/08/30 07:05:24;;;;;;;0.10;0.10;;;;;;;14.64;100.00;98424.06;5072755;28;20199;-55
2023/08/30 07:08:11;;;;;;;0.10;0.10;;;;;;;14.81;100.00;98419.84;5072764;28;20242;-56
2023/08/30 07:10:58;;;;;;;0.10;0.10;;;;;;;14.95;100.00;98416.72;5072577;28;20331;-56
2023/08/30 07:13:45;;;;;;;0.10;0.10;;;;;;;15.15;100.00;98417.50;5070959;28;20230;-56
2023/08/30 07:16:32;;;;;;;0.10;0.10;;;;;;;15.35;100.00;98408.47;5072531;28;20202;-56
2023/08/30 07:19:19;;;;;;;0.00;0.00;;;;;;;15.29;100.00;98394.88;5072619;28;20241;-56
2023/08/30 07:22:07;;;;;;;0.10;0.10;;;;;;;15.08;100.00;98400.41;5076721;28;20202;-55
2023/08/30 07:24:54;;;;;;;0.10;0.10;;;;;;;15.24;100.00;98389.94;5076701;28;20245;-56
2023/08/30 07:27:41;;;;;;;0.10;0.10;;;;;;;15.19;100.00;98386.91;5075364;28;20552;-56
2023/08/30 07:30:29;;;;;;;0.07;0.07;;;;;;;15.25;100.00;98389.00;5076682;28;20274;-56
2023/08/30 07:33:16;;;;;;;0.10;0.10;;;;;;;15.51;100.00;98394.47;5076260;28;20211;-56
2023/08/30 07:36:04;;;;;;;0.10;0.10;;;;;;;15.82;100.00;98387.03;5076440;28;20191;-56
2023/08/30 07:38:53;;;;;;;0.03;0.03;;;;;;;16.02;100.00;98387.75;5076103;28;20230;-56
2023/08/30 07:41:40;;;;;;;0.10;0.10;;;;;;;16.00;100.00;98382.53;5076392;28;20203;-56
2023/08/30 07:44:27;;;;;;;0.10;0.10;;;;;;;16.24;100.00;98368.59;5075316;28;20231;-56
2023/08/30 07:47:14;;;;;;;0.10;0.10;;;;;;;16.58;100.00;98365.19;5076171;28;20206;-56
2023/08/30 07:50:00;;;;;;;0.10;0.10;;;;;;;16.74;100.00;98351.97;5076178;28;20202;-56
2023/08/30 07:52:47;;;;;;;0.10;0.10;;;;;;;16.60;100.00;98347.19;5076090;28;20227;-56
2023/08/30 07:55:36;;;;;;;0.10;0.10;;;;;;;16.91;100.00;98341.38;5076085;28;20202;-56
2023/08/30 07:58:23;;;;;;;0.10;0.10;;;;;;;17.08;100.00;98343.13;5074489;28;20250;-56
2023/08/30 08:01:10;;;;;;;0.10;0.10;;;;;;;16.68;100.00;98338.34;5074827;28;20200;-56
2023/08/30 08:03:56;;;;;;;0.10;0.10;;;;;;;17.12;100.00;98340.00;5075797;28;20262;-56
2023/08/30 08:06:53;;;;;;;0.00;0.00;;;;;;;17.02;100.00;98335.75;5075814;28;20191;-55
2023/08/30 08:09:42;;;;;;;0.00;0.00;;;;;;;16.76;100.00;98341.09;5075749;28;20200;-56
2023/08/30 08:12:31;;;;;;;0.10;0.10;;;;;;;16.98;100.00;98337.88;5074258;28;20234;-56
2023/08/30 08:15:17;;;;;;;0.10;0.10;;;;;;;17.00;100.00;98335.91;5075604;28;20203;-56
2023/08/30 08:18:05;;;;;;;0.00;0.00;;;;;;;16.96;100.00;98339.06;5075489;28;20199;-56
2023/08/30 08:20:52;;;;;;;0.10;0.10;;;;;;;17.26;100.00;98340.38;5075296;28;20262;-56
2023/08/30 08:23:39;;;;;;;0.03;0.03;;;;;;;17.39;100.00;98327.41;5075561;28;20195;-56
2023/08/30 08:26:28;;;;;;;0.10;0.10;;;;;;;17.29;100.00;98340.91;5074623;28;20195;-56
2023/08/30 08:29:16;;;;;;;0.10;0.10;;;;;;;17.05;100.00;98338.94;5075109;28;20207;-56
2023/08/30 08:32:03;;;;;;;0.00;0.00;;;;;;;17.23;100.00;98340.69;5075007;28;20195;-55
2023/08/30 08:34:50;;;;;;;0.10;0.10;;;;;;;17.60;100.00;98338.50;5075385;28;20199;-56
2023/08/30 08:37:37;;;;;;;0.10;0.10;;;;;;;17.39;100.00;98328.22;5074831;28;20231;-56
2023/08/30 08:40:24;;;;;;;0.10;0.10;;;;;;;17.32;100.00;98329.03;5075409;28;20227;-56
2023/08/30 08:43:29;;;;;;;0.00;0.00;;;;;;;17.78;100.00;98317.00;5074037;28;20199;-56
2023/08/30 08:46:19;;;;;;;0.00;0.00;;;;;;;17.98;100.00;98315.69;5075203;28;20321;-56
2023/08/30 08:49:13;;;;;;;0.00;0.00;;;;;;;18.25;100.00;98314.53;5075104;28;20199;-56
2023/08/30 08:52:01;;;;;;;0.10;0.10;;;;;;;18.30;100.00;98317.53;5074945;28;20187;-56
2023/08/30 08:55:02;;;;;;;0.03;0.03;;;;;;;18.88;100.00;98312.97;5074663;28;20246;-56
2023/08/30 08:57:49;;;;;;;0.10;0.10;;;;;;;18.73;100.00;98314.69;5073624;28;20195;-56
2023/08/30 09:00:38;;;;;;;0.10;0.10;;;;;;;18.58;100.00;98306.47;5074678;28;20310;-56
2023/08/30 09:03:27;;;;;;;0.10;0.10;;;;;;;18.75;100.00;98307.31;5074809;28;20261;-56
2023/08/30 09:06:16;;;;;;;0.10;0.10;;;;;;;18.55;100.00;98306.81;5074819;28;20782;-56
2023/08/30 09:09:04;;;;;;;0.10;0.10;;;;;;;18.59;100.00;98292.03;5074239;28;20242;-56
2023/08/30 09:11:51;;;;;;;0.00;0.00;;;;;;;18.99;100.00;98290.28;5073294;28;20192;-56
2023/08/30 09:14:38;;;;;;;0.10;0.10;;;;;;;19.67;100.00;98287.81;5074529;28;20210;-56
2023/08/30 09:17:36;;;;;;;0.00;0.00;;;;;;;19.58;100.00;98285.34;5074409;28;20196;-56
2023/08/30 09:20:24;;;;;;;0.10;0.10;;;;;;;19.26;100.00;98273.75;5074531;28;20234;-56
2023/08/30 09:23:18;;;;;;;0.10;0.10;;;;;;;19.54;100.00;98267.88;5074509;28;20307;-56
2023/08/30 09:26:05;;;;;;;0.10;0.10;;;;;;;19.65;100.00;98272.88;5074397;28;20269;-56
2023/08/30 09:28:52;;;;;;;0.00;0.00;;;;;;;19.35;100.00;98261.94;5073946;28;20186;-56
2023/08/30 09:31:41;;;;;;;0.00;0.00;;;;;;;19.88;100.00;98259.44;5074055;28;20195;-56
2023/08/30 09:34:28;;;;;;;0.00;0.00;;;;;;;20.02;100.00;98246.06;5073904;28;20219;-56
2023/08/30 09:37:22;;;;;;;0.00;0.00;;;;;;;20.44;100.00;98233.94;5074020;28;20234;-56
2023/08/30 09:40:10;;;;;;;0.00;0.00;;;;;;;20.33;100.00;98238.91;5073894;28;20232;-56
2023/08/30 09:42:59;;;;;;;0.10;0.10;;;;;;;20.45;100.00;98238.31;5072203;28;20258;-56
2023/08/30 09:45:59;;;;;;;0.10;0.10;;;;;;;20.49;100.00;98230.72;5073907;28;20409;-56
2023/08/30 09:48:46;;;;;;;0.10;0.10;;;;;;;19.79;100.00;98231.00;5074023;28;20267;-56
2023/08/30 09:51:36;;;;;;;0.10;0.10;;;;;;;20.26;100.00;98234.25;5073744;28;20556;-56
2023/08/30 09:54:25;;;;;;;0.10;0.10;;;;;;;21.20;100.00;98234.59;5073593;28;20215;-57
2023/08/30 09:57:26;;;;;;;0.00;0.00;;;;;;;21.62;100.00;98231.19;5071126;28;20190;-56
2023/08/30 10:00:14;;;;;;;0.00;0.00;;;;;;;22.07;100.00;98229.16;5073520;28;20707;-56
2023/08/30 10:03:01;;;;;;;0.10;0.10;;;;;;;22.26;100.00;98230.34;5073360;28;20195;-56
2023/08/30 10:06:09;;;;;;;0.00;0.00;;;;;;;21.75;100.00;98226.94;5073321;28;20243;-56
2023/08/30 10:08:57;;;;;;;0.10;0.10;;;;;;;21.45;100.00;98224.38;5073422;28;20195;-56
2023/08/30 10:11:46;;;;;;;0.10;0.10;;;;;;;21.88;100.00;98224.38;5071980;28;20200;-56
2023/08/30 10:14:33;;;;;;;0.10;0.10;;;;;;;21.81;100.00;98204.59;5072959;28;20218;-56
2023/08/30 10:17:24;;;;;;;0.10;0.10;;;;;;;22.27;100.00;98207.72;5073158;28;20703;-56
2023/08/30 10:20:12;;;;;;;0.10;0.10;;;;;;;21.91;100.00;98191.66;5073083;28;20199;-56
2023/08/30 10:22:59;;;;;;;0.00;0.00;;;;;;;22.81;100.00;98188.16;5072988;28;20729;-56
2023/08/30 10:25:49;;;;;;;0.00;0.00;;;;;;;23.39;100.00;98189.44;5072959;28;20275;-56
2023/08/30 10:28:40;;;;;;;0.10;0.10;;;;;;;22.82;100.00;98181.72;5071744;28;20200;-56
2023/08/30 10:31:28;;;;;;;0.00;0.00;;;;;;;23.08;100.00;98176.47;5072888;28;20318;-56
2023/08/30 10:34:18;;;;;;;0.10;0.10;;;;;;;23.09;100.00;98174.59;5072684;28;20219;-56
2023/08/30 10:37:08;;;;;;;0.10;0.10;;;;;;;21.76;100.00;98180.94;5072504;28;20187;-56
2023/08/30 10:40:00;;;;;;;0.00;0.00;;;;;;;20.81;100.00;98173.00;5072719;28;20195;-56
2023/08/30 10:42:48;;;;;;;0.00;0.00;;;;;;;21.09;100.00;98173.13;5071305;28;20211;-56
2023/08/30 10:45:36;;;;;;;0.10;0.10;;;;;;;20.86;100.00;98179.50;5072665;28;20214;-56
2023/08/30 10:48:23;;;;;;;0.10;0.10;;;;;;;20.69;100.00;98178.03;5072711;28;20215;-56
2023/08/30 10:51:22;;;;;;;0.10;0.10;;;;;;;21.01;100.00;98174.09;5072558;28;20199;-56
2023/08/30 10:54:13;;;;;;;0.10;0.10;;;;;;;21.02;100.00;98175.75;5072385;28;20226;-56
2023/08/30 10:57:01;;;;;;;0.10;0.10;;;;;;;20.70;100.00;98178.88;5071348;28;20207;-56
2023/08/30 11:00:11;;;;;;;0.10;0.10;;;;;;;20.96;100.00;98171.13;5072278;28;20195;-56
2023/08/30 11:02:59;;;;;;;0.10;0.10;;;;;;;21.09;100.00;98173.13;5072580;28;20318;-56
2023/08/30 11:05:46;;;;;;;0.00;0.00;;;;;;;21.03;100.00;98161.25;5072311;28;20239;-56
2023/08/30 11:08:35;;;;;;;0.00;0.00;;;;;;;20.83;100.00;98154.81;5072609;28;20242;-56
2023/08/30 11:11:21;;;;;;;0.10;0.10;;;;;;;21.33;100.00;98156.69;5072070;28;20752;-56
2023/08/30 11:14:09;;;;;;;0.10;0.10;;;;;;;21.50;100.00;98154.53;5072006;28;20225;-56
2023/08/30 11:16:56;;;;;;;0.10;0.10;;;;;;;21.35;100.00;98154.63;5072344;28;20310;-56
2023/08/30 11:19:44;;;;;;;0.00;0.00;;;;;;;21.76;100.00;98150.44;5072392;28;20274;-56
2023/08/30 11:22:31;;;;;;;0.10;0.10;;;;;;;21.71;100.00;98148.31;5072219;28;20718;-56
2023/08/30 11:25:19;;;;;;;0.00;0.00;;;;;;;21.50;100.00;98148.31;5072430;28;20257;-56
2023/08/30 11:28:06;;;;;;;0.10;0.10;;;;;;;21.56;100.00;98145.72;5071131;28;20191;-56
2023/08/30 11:30:54;;;;;;;0.10;0.10;;;;;;;21.64;100.00;98144.75;5072166;28;20206;-56
2023/08/30 11:33:41;;;;;;;0.07;0.07;;;;;;;21.40;100.00;98140.56;5072089;28;20199;-56
2023/08/30 11:36:31;;;;;;;0.10;0.10;;;;;;;21.15;100.00;98148.16;5072125;28;20218;-56
2023/08/30 11:39:18;;;;;;;0.10;0.10;;;;;;;20.69;100.00;98142.22;5072168;28;20199;-56
2023/08/30 11:42:06;;;;;;;0.07;0.07;;;;;;;20.92;100.00;98137.53;5071072;28;20191;-56
2023/08/30 11:45:04;;;;;;;0.10;0.10;;;;;;;20.94;100.00;98140.03;5072029;28;20234;-56
2023/08/30 11:47:52;;;;;;;0.10;0.10;;;;;;;20.96;100.00;98127.22;5072172;28;20210;-56
2023/08/30 11:50:40;;;;;;;0.10;0.10;;;;;;;21.00;100.00;98123.13;5071986;28;20235;-56
2023/08/30 11:53:36;;;;;;;0.00;0.00;;;;;;;21.29;100.00;98123.06;5071969;28;20192;-56
2023/08/30 11:56:23;;;;;;;0.10;0.10;;;;;;;21.49;100.00;98128.63;5070774;28;20283;-56
2023/08/30 11:59:19;;;;;;;0.00;0.00;;;;;;;21.87;100.00;98114.84;5072196;28;20236;-56
2023/08/30 12:02:07;;;;;;;0.10;0.10;;;;;;;21.88;100.00;98117.34;5072028;28;20671;-56
2023/08/30 12:04:54;;;;;;;0.00;0.00;;;;;;;21.77;100.00;98114.38;5071960;28;20306;-56
2023/08/30 12:07:41;;;;;;;0.10;0.10;;;;;;;21.57;100.00;98119.59;5074545;28;20204;-56
2023/08/30 12:10:30;;;;;;;0.10;0.10;;;;;;;21.31;100.00;98115.59;5075229;28;20194;-56
2023/08/30 12:13:24;;;;;;;0.10;0.10;;;;;;;21.15;100.00;98130.13;5074201;28;20787;-56
2023/08/30 12:16:17;;;;;;;0.10;0.10;;;;;;;20.90;100.00;98122.59;5075078;28;20227;-56
2023/08/30 12:19:12;;;;;;;0.00;0.00;;;;;;;20.61;100.00;98124.31;5075469;28;20196;-57
2023/08/30 12:22:04;;;;;;;0.10;0.10;;;;;;;20.70;100.00;98119.66;5075342;28;20242;-56
2023/08/30 12:24:51;;;;;;;0.10;0.10;;;;;;;20.85;100.00;98120.47;5075324;28;20195;-56
2023/08/30 12:27:40;;;;;;;0.10;0.10;;;;;;;21.15;100.00;98130.13;5073981;28;20203;-56
2023/08/30 12:30:27;;;;;;;0.00;0.00;;;;;;;21.38;100.00;98121.06;5075174;28;20206;-56
2023/08/30 12:33:17;;;;;;;0.00;0.00;;;;;;;21.34;100.00;98126.00;5075101;28;20199;-56
2023/08/30 12:36:05;;;;;;;0.10;0.10;;;;;;;21.15;100.00;98134.69;5074944;28;20282;-55
2023/08/30 12:38:52;;;;;;;0.10;0.10;;;;;;;20.82;100.00;98121.66;5074894;28;20265;-56
2023/08/30 12:41:41;;;;;;;0.00;0.00;;;;;;;21.13;100.00;98125.94;5073655;28;20207;-56
2023/08/30 12:44:29;;;;;;;0.10;0.10;;;;;;;21.23;100.00;98125.63;5075102;28;20258;-56
2023/08/30 12:47:16;;;;;;;0.10;0.10;;;;;;;21.29;100.00;98111.44;5074962;28;20192;-56
2023/08/30 12:50:03;;;;;;;0.10;0.10;;;;;;;21.36;100.00;98113.19;5074696;28;20207;-56
2023/08/30 12:52:50;;;;;;;0.00;0.00;;;;;;;21.80;97.40;98109.41;5075052;28;20200;-56
2023/08/30 12:55:39;;;;;;;0.10;0.10;;;;;;;22.23;94.14;98112.88;5073503;28;20210;-56
2023/08/30 12:58:26;;;;;;;0.10;0.10;;;;;;;22.15;97.12;98110.31;5072078;28;20234;-56
2023/08/30 13:01:14;;;;;;;0.00;0.00;;;;;;;21.51;96.56;98115.78;5074723;28;20199;-56
2023/08/30 13:04:03;;;;;;;0.00;0.00;;;;;;;21.10;95.66;98115.56;5073039;28;20245;-56